sensor_id;sensor_type;location;lat;lon;timestamp;P1;durP1;ratioP1;P2;durP2;ratioP2
57846;SDS011;43675;50.030;21.952;2023-05-19T00:02:16;38.70;;;31.30;;
57846;SDS011;43675;50.030;21.952;2023-05-19T00:04:43;34.10;;;30.70;;
57846;SDS011;43675;50.030;21.952;2023-05-19T00:07:10;33.20;;;29.90;;
57846;SDS011;43675;50.030;21.952;2023-05-19T00:09:36;31.80;;;28.70;;
57846;SDS011;43675;50.030;21.952;2023-05-19T00:12:03;31.90;;;28.20;;
57846;SDS011;43675;50.030;21.952;2023-05-19T00:14:30;32.50;;;29.00;;
57846;SDS011;43675;50.030;21.952;2023-05-19T00:16:57;32.70;;;29.50;;
57846;SDS011;43675;50.030;21.952;2023-05-19T00:19:24;32.70;;;29.60;;
57846;SDS011;43675;50.030;21.952;2023-05-19T00:21:50;33.50;;;30.20;;
57846;SDS011;43675;50.030;21.952;2023-05-19T00:24:17;34.30;;;30.70;;
57846;SDS011;43675;50.030;21.952;2023-05-19T00:26:43;34.50;;;31.10;;
57846;SDS011;43675;50.030;21.952;2023-05-19T00:29:10;35.30;;;31.60;;
57846;SDS011;43675;50.030;21.952;2023-05-19T00:31:37;33.90;;;30.40;;
57846;SDS011;43675;50.030;21.952;2023-05-19T00:34:03;33.90;;;29.90;;
57846;SDS011;43675;50.030;21.952;2023-05-19T00:36:29;34.50;;;31.20;;
57846;SDS011;43675;50.030;21.952;2023-05-19T00:38:56;34.30;;;30.40;;
57846;SDS011;43675;50.030;21.952;2023-05-19T00:41:23;32.30;;;28.90;;
57846;SDS011;43675;50.030;21.952;2023-05-19T00:43:50;37.80;;;29.20;;
57846;SDS011;43675;50.030;21.952;2023-05-19T00:46:17;31.30;;;28.00;;
57846;SDS011;43675;50.030;21.952;2023-05-19T00:48:44;31.50;;;28.30;;
57846;SDS011;43675;50.030;21.952;2023-05-19T00:51:11;31.40;;;28.40;;
57846;SDS011;43675;50.030;21.952;2023-05-19T00:53:39;30.80;;;27.70;;
57846;SDS011;43675;50.030;21.952;2023-05-19T00:56:06;31.00;;;27.90;;
57846;SDS011;43675;50.030;21.952;2023-05-19T00:58:32;30.80;;;27.90;;
57846;SDS011;43675;50.030;21.952;2023-05-19T01:01:00;31.60;;;28.60;;
57846;SDS011;43675;50.030;21.952;2023-05-19T01:03:30;31.90;;;28.60;;
57846;SDS011;43675;50.030;21.952;2023-05-19T01:05:58;33.00;;;29.70;;
57846;SDS011;43675;50.030;21.952;2023-05-19T01:08:24;33.40;;;30.30;;
57846;SDS011;43675;50.030;21.952;2023-05-19T01:10:51;32.20;;;28.60;;
57846;SDS011;43675;50.030;21.952;2023-05-19T01:13:18;32.10;;;28.90;;
57846;SDS011;43675;50.030;21.952;2023-05-19T01:15:51;33.70;;;29.90;;
57846;SDS011;43675;50.030;21.952;2023-05-19T01:18:35;30.80;;;27.70;;
57846;SDS011;43675;50.030;21.952;2023-05-19T01:32:13;32.70;;;29.20;;
57846;SDS011;43675;50.030;21.952;2023-05-19T01:34:45;31.60;;;28.50;;
57846;SDS011;43675;50.030;21.952;2023-05-19T01:37:16;30.70;;;27.90;;
57846;SDS011;43675;50.030;21.952;2023-05-19T01:39:45;31.10;;;28.20;;
57846;SDS011;43675;50.030;21.952;2023-05-19T01:42:11;31.80;;;28.70;;
57846;SDS011;43675;50.030;21.952;2023-05-19T01:44:39;31.70;;;28.40;;
57846;SDS011;43675;50.030;21.952;2023-05-19T01:47:07;32.70;;;29.20;;
57846;SDS011;43675;50.030;21.952;2023-05-19T01:49:35;34.20;;;30.90;;
57846;SDS011;43675;50.030;21.952;2023-05-19T01:52:02;31.40;;;28.40;;
57846;SDS011;43675;50.030;21.952;2023-05-19T01:54:31;31.00;;;28.00;;
57846;SDS011;43675;50.030;21.952;2023-05-19T02:05:11;28.00;;;25.40;;
57846;SDS011;43675;50.030;21.952;2023-05-19T02:07:44;27.40;;;24.60;;
57846;SDS011;43675;50.030;21.952;2023-05-19T02:10:27;28.10;;;25.10;;
57846;SDS011;43675;50.030;21.952;2023-05-19T02:12:55;26.50;;;23.90;;
57846;SDS011;43675;50.030;21.952;2023-05-19T02:15:27;27.60;;;24.70;;
57846;SDS011;43675;50.030;21.952;2023-05-19T02:17:57;26.80;;;23.90;;
57846;SDS011;43675;50.030;21.952;2023-05-19T02:20:24;26.30;;;23.80;;
57846;SDS011;43675;50.030;21.952;2023-05-19T02:22:51;26.10;;;23.50;;
57846;SDS011;43675;50.030;21.952;2023-05-19T02:25:19;28.50;;;24.00;;
57846;SDS011;43675;50.030;21.952;2023-05-19T02:27:46;25.70;;;23.20;;
57846;SDS011;43675;50.030;21.952;2023-05-19T02:30:12;26.10;;;23.40;;
57846;SDS011;43675;50.030;21.952;2023-05-19T02:32:39;25.60;;;22.90;;
57846;SDS011;43675;50.030;21.952;2023-05-19T02:35:05;24.90;;;22.00;;
57846;SDS011;43675;50.030;21.952;2023-05-19T02:37:32;25.00;;;22.70;;
57846;SDS011;43675;50.030;21.952;2023-05-19T02:40:02;24.90;;;22.50;;
57846;SDS011;43675;50.030;21.952;2023-05-19T02:42:29;23.40;;;21.20;;
57846;SDS011;43675;50.030;21.952;2023-05-19T02:44:56;24.70;;;22.50;;
57846;SDS011;43675;50.030;21.952;2023-05-19T02:47:23;24.00;;;21.80;;
57846;SDS011;43675;50.030;21.952;2023-05-19T02:49:49;25.30;;;22.60;;
57846;SDS011;43675;50.030;21.952;2023-05-19T02:52:16;25.10;;;22.70;;
57846;SDS011;43675;50.030;21.952;2023-05-19T02:54:42;26.00;;;23.40;;
57846;SDS011;43675;50.030;21.952;2023-05-19T02:57:09;26.90;;;24.10;;
57846;SDS011;43675;50.030;21.952;2023-05-19T02:59:35;27.40;;;24.80;;
57846;SDS011;43675;50.030;21.952;2023-05-19T03:02:02;28.10;;;24.30;;
57846;SDS011;43675;50.030;21.952;2023-05-19T03:04:29;23.80;;;21.70;;
57846;SDS011;43675;50.030;21.952;2023-05-19T03:06:56;25.20;;;22.70;;
57846;SDS011;43675;50.030;21.952;2023-05-19T03:09:22;25.40;;;22.90;;
57846;SDS011;43675;50.030;21.952;2023-05-19T03:11:49;25.20;;;22.70;;
57846;SDS011;43675;50.030;21.952;2023-05-19T03:14:16;25.30;;;22.90;;
57846;SDS011;43675;50.030;21.952;2023-05-19T03:16:42;24.50;;;22.20;;
57846;SDS011;43675;50.030;21.952;2023-05-19T03:19:09;24.60;;;22.00;;
57846;SDS011;43675;50.030;21.952;2023-05-19T03:21:35;24.40;;;21.90;;
57846;SDS011;43675;50.030;21.952;2023-05-19T03:24:02;25.00;;;22.50;;
57846;SDS011;43675;50.030;21.952;2023-05-19T03:26:29;23.50;;;21.10;;
57846;SDS011;43675;50.030;21.952;2023-05-19T03:28:55;23.40;;;21.10;;
57846;SDS011;43675;50.030;21.952;2023-05-19T03:31:22;24.20;;;21.60;;
57846;SDS011;43675;50.030;21.952;2023-05-19T03:33:48;23.90;;;21.60;;
57846;SDS011;43675;50.030;21.952;2023-05-19T03:36:15;23.80;;;21.50;;
57846;SDS011;43675;50.030;21.952;2023-05-19T03:38:42;23.80;;;21.60;;
57846;SDS011;43675;50.030;21.952;2023-05-19T03:41:08;23.70;;;21.20;;
57846;SDS011;43675;50.030;21.952;2023-05-19T03:43:35;23.40;;;21.20;;
57846;SDS011;43675;50.030;21.952;2023-05-19T03:46:01;23.30;;;21.10;;
57846;SDS011;43675;50.030;21.952;2023-05-19T03:48:28;23.50;;;21.20;;
57846;SDS011;43675;50.030;21.952;2023-05-19T03:50:54;23.80;;;21.60;;
57846;SDS011;43675;50.030;21.952;2023-05-19T03:53:21;24.50;;;22.00;;
57846;SDS011;43675;50.030;21.952;2023-05-19T03:55:48;23.40;;;21.10;;
57846;SDS011;43675;50.030;21.952;2023-05-19T03:58:15;24.00;;;21.80;;
57846;SDS011;43675;50.030;21.952;2023-05-19T04:00:41;24.70;;;22.20;;
57846;SDS011;43675;50.030;21.952;2023-05-19T04:03:08;26.30;;;23.80;;
57846;SDS011;43675;50.030;21.952;2023-05-19T04:05:34;24.80;;;22.20;;
57846;SDS011;43675;50.030;21.952;2023-05-19T04:08:01;23.80;;;21.60;;
57846;SDS011;43675;50.030;21.952;2023-05-19T04:10:28;23.70;;;21.40;;
57846;SDS011;43675;50.030;21.952;2023-05-19T04:12:54;22.40;;;20.40;;
57846;SDS011;43675;50.030;21.952;2023-05-19T04:15:21;23.40;;;21.00;;
57846;SDS011;43675;50.030;21.952;2023-05-19T04:17:48;22.50;;;19.90;;
57846;SDS011;43675;50.030;21.952;2023-05-19T04:20:14;22.00;;;20.00;;
57846;SDS011;43675;50.030;21.952;2023-05-19T04:22:41;22.30;;;20.10;;
57846;SDS011;43675;50.030;21.952;2023-05-19T04:25:07;20.90;;;19.00;;
57846;SDS011;43675;50.030;21.952;2023-05-19T04:27:34;21.70;;;19.50;;
57846;SDS011;43675;50.030;21.952;2023-05-19T04:30:01;21.20;;;19.10;;
57846;SDS011;43675;50.030;21.952;2023-05-19T04:32:28;21.70;;;19.60;;
57846;SDS011;43675;50.030;21.952;2023-05-19T04:34:55;20.90;;;18.80;;
57846;SDS011;43675;50.030;21.952;2023-05-19T04:37:22;22.70;;;20.50;;
57846;SDS011;43675;50.030;21.952;2023-05-19T04:39:49;24.30;;;21.70;;
57846;SDS011;43675;50.030;21.952;2023-05-19T04:42:16;23.00;;;20.80;;
57846;SDS011;43675;50.030;21.952;2023-05-19T04:44:46;22.10;;;20.10;;
57846;SDS011;43675;50.030;21.952;2023-05-19T04:47:13;22.80;;;20.60;;
57846;SDS011;43675;50.030;21.952;2023-05-19T04:49:39;22.50;;;20.10;;
57846;SDS011;43675;50.030;21.952;2023-05-19T04:52:06;22.30;;;20.20;;
57846;SDS011;43675;50.030;21.952;2023-05-19T04:54:34;22.60;;;20.10;;
57846;SDS011;43675;50.030;21.952;2023-05-19T04:57:00;20.90;;;19.00;;
57846;SDS011;43675;50.030;21.952;2023-05-19T04:59:27;22.00;;;19.90;;
57846;SDS011;43675;50.030;21.952;2023-05-19T05:01:54;23.10;;;20.70;;
57846;SDS011;43675;50.030;21.952;2023-05-19T05:04:21;23.10;;;20.60;;
57846;SDS011;43675;50.030;21.952;2023-05-19T05:06:48;21.70;;;19.70;;
57846;SDS011;43675;50.030;21.952;2023-05-19T05:09:15;21.90;;;19.80;;
57846;SDS011;43675;50.030;21.952;2023-05-19T05:11:43;20.80;;;19.00;;
57846;SDS011;43675;50.030;21.952;2023-05-19T05:14:10;20.80;;;18.90;;
57846;SDS011;43675;50.030;21.952;2023-05-19T05:16:37;20.00;;;18.30;;
57846;SDS011;43675;50.030;21.952;2023-05-19T05:19:04;21.50;;;19.20;;
57846;SDS011;43675;50.030;21.952;2023-05-19T05:21:31;21.00;;;19.00;;
57846;SDS011;43675;50.030;21.952;2023-05-19T05:23:57;21.40;;;19.40;;
57846;SDS011;43675;50.030;21.952;2023-05-19T05:26:25;20.70;;;18.80;;
57846;SDS011;43675;50.030;21.952;2023-05-19T05:28:55;21.50;;;19.60;;
57846;SDS011;43675;50.030;21.952;2023-05-19T05:31:22;21.70;;;19.60;;
57846;SDS011;43675;50.030;21.952;2023-05-19T05:33:48;21.30;;;19.30;;
57846;SDS011;43675;50.030;21.952;2023-05-19T05:36:15;21.00;;;19.20;;
57846;SDS011;43675;50.030;21.952;2023-05-19T05:38:42;21.60;;;19.40;;
57846;SDS011;43675;50.030;21.952;2023-05-19T05:41:08;20.40;;;18.40;;
57846;SDS011;43675;50.030;21.952;2023-05-19T05:43:35;20.40;;;18.40;;
57846;SDS011;43675;50.030;21.952;2023-05-19T05:46:01;20.60;;;18.80;;
57846;SDS011;43675;50.030;21.952;2023-05-19T05:48:28;20.10;;;18.40;;
57846;SDS011;43675;50.030;21.952;2023-05-19T05:50:55;21.50;;;19.10;;
57846;SDS011;43675;50.030;21.952;2023-05-19T05:53:23;21.30;;;19.20;;
57846;SDS011;43675;50.030;21.952;2023-05-19T05:55:51;20.10;;;18.30;;
57846;SDS011;43675;50.030;21.952;2023-05-19T05:58:17;21.70;;;19.70;;
57846;SDS011;43675;50.030;21.952;2023-05-19T06:00:44;21.50;;;19.30;;
57846;SDS011;43675;50.030;21.952;2023-05-19T06:03:10;20.70;;;18.80;;
57846;SDS011;43675;50.030;21.952;2023-05-19T06:05:37;21.20;;;19.10;;
57846;SDS011;43675;50.030;21.952;2023-05-19T06:08:03;24.30;;;20.20;;
57846;SDS011;43675;50.030;21.952;2023-05-19T06:10:30;21.10;;;19.30;;
57846;SDS011;43675;50.030;21.952;2023-05-19T06:12:57;21.90;;;19.90;;
57846;SDS011;43675;50.030;21.952;2023-05-19T06:15:23;22.00;;;20.00;;
57846;SDS011;43675;50.030;21.952;2023-05-19T06:17:50;23.20;;;21.10;;
57846;SDS011;43675;50.030;21.952;2023-05-19T06:20:17;22.00;;;20.00;;
57846;SDS011;43675;50.030;21.952;2023-05-19T06:22:43;21.10;;;19.30;;
57846;SDS011;43675;50.030;21.952;2023-05-19T06:25:10;21.80;;;19.90;;
57846;SDS011;43675;50.030;21.952;2023-05-19T06:27:36;22.00;;;20.00;;
57846;SDS011;43675;50.030;21.952;2023-05-19T06:30:03;21.60;;;19.70;;
57846;SDS011;43675;50.030;21.952;2023-05-19T06:32:30;21.00;;;18.90;;
57846;SDS011;43675;50.030;21.952;2023-05-19T06:34:57;22.00;;;19.90;;
57846;SDS011;43675;50.030;21.952;2023-05-19T06:37:23;22.60;;;20.50;;
57846;SDS011;43675;50.030;21.952;2023-05-19T06:39:50;21.90;;;19.90;;
57846;SDS011;43675;50.030;21.952;2023-05-19T06:42:19;21.80;;;19.90;;
57846;SDS011;43675;50.030;21.952;2023-05-19T06:44:46;21.70;;;19.60;;
57846;SDS011;43675;50.030;21.952;2023-05-19T06:47:13;21.60;;;19.60;;
57846;SDS011;43675;50.030;21.952;2023-05-19T06:49:40;21.80;;;19.80;;
57846;SDS011;43675;50.030;21.952;2023-05-19T06:52:07;22.60;;;20.40;;
57846;SDS011;43675;50.030;21.952;2023-05-19T06:54:34;22.10;;;20.00;;
57846;SDS011;43675;50.030;21.952;2023-05-19T06:57:00;20.70;;;18.80;;
57846;SDS011;43675;50.030;21.952;2023-05-19T06:59:27;22.30;;;20.10;;
57846;SDS011;43675;50.030;21.952;2023-05-19T07:01:57;21.40;;;19.40;;
57846;SDS011;43675;50.030;21.952;2023-05-19T07:04:23;20.90;;;18.90;;
57846;SDS011;43675;50.030;21.952;2023-05-19T07:06:50;21.40;;;19.30;;
57846;SDS011;43675;50.030;21.952;2023-05-19T07:09:16;20.50;;;18.60;;
57846;SDS011;43675;50.030;21.952;2023-05-19T07:11:43;20.20;;;18.50;;
57846;SDS011;43675;50.030;21.952;2023-05-19T07:14:09;21.10;;;19.10;;
57846;SDS011;43675;50.030;21.952;2023-05-19T07:16:36;20.70;;;18.90;;
57846;SDS011;43675;50.030;21.952;2023-05-19T07:19:02;20.60;;;18.70;;
57846;SDS011;43675;50.030;21.952;2023-05-19T07:21:29;20.30;;;18.50;;
57846;SDS011;43675;50.030;21.952;2023-05-19T07:23:55;21.60;;;19.60;;
57846;SDS011;43675;50.030;21.952;2023-05-19T07:26:22;21.30;;;19.50;;
57846;SDS011;43675;50.030;21.952;2023-05-19T07:28:48;21.60;;;19.70;;
57846;SDS011;43675;50.030;21.952;2023-05-19T07:31:15;21.20;;;19.40;;
57846;SDS011;43675;50.030;21.952;2023-05-19T07:33:41;21.40;;;19.50;;
57846;SDS011;43675;50.030;21.952;2023-05-19T07:36:08;20.60;;;18.70;;
57846;SDS011;43675;50.030;21.952;2023-05-19T07:38:34;21.20;;;19.30;;
57846;SDS011;43675;50.030;21.952;2023-05-19T07:41:01;21.60;;;19.60;;
57846;SDS011;43675;50.030;21.952;2023-05-19T07:43:28;22.20;;;19.90;;
57846;SDS011;43675;50.030;21.952;2023-05-19T07:45:54;21.80;;;19.90;;
57846;SDS011;43675;50.030;21.952;2023-05-19T07:48:21;21.80;;;19.80;;
57846;SDS011;43675;50.030;21.952;2023-05-19T07:50:49;22.70;;;20.50;;
57846;SDS011;43675;50.030;21.952;2023-05-19T07:53:17;22.10;;;20.00;;
57846;SDS011;43675;50.030;21.952;2023-05-19T07:55:46;22.20;;;20.20;;
57846;SDS011;43675;50.030;21.952;2023-05-19T07:58:13;22.60;;;20.50;;
57846;SDS011;43675;50.030;21.952;2023-05-19T08:00:40;23.20;;;21.10;;
57846;SDS011;43675;50.030;21.952;2023-05-19T08:03:07;24.10;;;21.70;;
57846;SDS011;43675;50.030;21.952;2023-05-19T08:05:34;23.60;;;21.30;;
57846;SDS011;43675;50.030;21.952;2023-05-19T08:08:01;23.20;;;21.00;;
57846;SDS011;43675;50.030;21.952;2023-05-19T08:10:29;23.90;;;21.70;;
57846;SDS011;43675;50.030;21.952;2023-05-19T08:12:55;23.50;;;21.40;;
57846;SDS011;43675;50.030;21.952;2023-05-19T08:15:23;23.40;;;21.20;;
57846;SDS011;43675;50.030;21.952;2023-05-19T08:17:49;22.30;;;20.10;;
57846;SDS011;43675;50.030;21.952;2023-05-19T08:20:16;23.40;;;21.20;;
57846;SDS011;43675;50.030;21.952;2023-05-19T08:22:43;23.50;;;21.10;;
57846;SDS011;43675;50.030;21.952;2023-05-19T08:25:09;23.20;;;21.10;;
57846;SDS011;43675;50.030;21.952;2023-05-19T08:27:36;23.20;;;21.10;;
57846;SDS011;43675;50.030;21.952;2023-05-19T08:30:02;24.60;;;22.30;;
57846;SDS011;43675;50.030;21.952;2023-05-19T08:32:30;24.50;;;22.10;;
57846;SDS011;43675;50.030;21.952;2023-05-19T08:34:56;25.30;;;23.00;;
57846;SDS011;43675;50.030;21.952;2023-05-19T08:37:23;24.50;;;21.90;;
57846;SDS011;43675;50.030;21.952;2023-05-19T08:39:49;23.80;;;21.50;;
57846;SDS011;43675;50.030;21.952;2023-05-19T08:42:16;23.60;;;21.40;;
57846;SDS011;43675;50.030;21.952;2023-05-19T08:44:43;24.20;;;21.80;;
57846;SDS011;43675;50.030;21.952;2023-05-19T08:47:09;24.40;;;22.10;;
57846;SDS011;43675;50.030;21.952;2023-05-19T08:49:39;24.40;;;22.00;;
57846;SDS011;43675;50.030;21.952;2023-05-19T08:54:56;25.80;;;23.40;;
57846;SDS011;43675;50.030;21.952;2023-05-19T08:57:29;23.80;;;21.50;;
57846;SDS011;43675;50.030;21.952;2023-05-19T08:59:56;24.20;;;21.80;;
57846;SDS011;43675;50.030;21.952;2023-05-19T09:02:24;24.10;;;21.90;;
57846;SDS011;43675;50.030;21.952;2023-05-19T09:04:52;23.70;;;21.60;;
57846;SDS011;43675;50.030;21.952;2023-05-19T09:07:20;25.10;;;22.70;;
57846;SDS011;43675;50.030;21.952;2023-05-19T09:09:49;24.60;;;22.30;;
57846;SDS011;43675;50.030;21.952;2023-05-19T09:12:16;25.10;;;22.60;;
57846;SDS011;43675;50.030;21.952;2023-05-19T09:14:42;24.80;;;22.40;;
57846;SDS011;43675;50.030;21.952;2023-05-19T09:17:09;25.20;;;22.80;;
57846;SDS011;43675;50.030;21.952;2023-05-19T09:19:41;25.20;;;22.70;;
57846;SDS011;43675;50.030;21.952;2023-05-19T09:22:08;25.40;;;22.70;;
57846;SDS011;43675;50.030;21.952;2023-05-19T09:24:35;24.10;;;21.90;;
57846;SDS011;43675;50.030;21.952;2023-05-19T09:27:03;23.60;;;21.40;;
57846;SDS011;43675;50.030;21.952;2023-05-19T09:29:30;24.50;;;22.20;;
57846;SDS011;43675;50.030;21.952;2023-05-19T09:31:56;24.10;;;22.00;;
57846;SDS011;43675;50.030;21.952;2023-05-19T09:34:23;24.10;;;21.60;;
57846;SDS011;43675;50.030;21.952;2023-05-19T09:36:49;24.70;;;22.40;;
57846;SDS011;43675;50.030;21.952;2023-05-19T09:39:17;25.10;;;22.70;;
57846;SDS011;43675;50.030;21.952;2023-05-19T09:41:44;25.10;;;22.70;;
57846;SDS011;43675;50.030;21.952;2023-05-19T09:44:26;24.90;;;22.70;;
57846;SDS011;43675;50.030;21.952;2023-05-19T09:46:53;25.60;;;23.20;;
57846;SDS011;43675;50.030;21.952;2023-05-19T09:49:21;24.50;;;22.40;;
57846;SDS011;43675;50.030;21.952;2023-05-19T09:51:52;24.60;;;22.30;;
57846;SDS011;43675;50.030;21.952;2023-05-19T09:54:23;24.90;;;22.70;;
57846;SDS011;43675;50.030;21.952;2023-05-19T09:56:57;25.40;;;23.10;;
57846;SDS011;43675;50.030;21.952;2023-05-19T09:59:24;24.40;;;22.30;;
57846;SDS011;43675;50.030;21.952;2023-05-19T10:01:55;24.00;;;21.80;;
57846;SDS011;43675;50.030;21.952;2023-05-19T10:04:27;23.40;;;21.30;;
57846;SDS011;43675;50.030;21.952;2023-05-19T10:06:56;24.80;;;22.50;;
57846;SDS011;43675;50.030;21.952;2023-05-19T10:09:24;24.50;;;22.30;;
57846;SDS011;43675;50.030;21.952;2023-05-19T10:11:53;24.90;;;22.70;;
57846;SDS011;43675;50.030;21.952;2023-05-19T10:14:21;24.90;;;22.60;;
57846;SDS011;43675;50.030;21.952;2023-05-19T10:16:50;23.80;;;21.60;;
57846;SDS011;43675;50.030;21.952;2023-05-19T10:19:20;24.00;;;21.70;;
57846;SDS011;43675;50.030;21.952;2023-05-19T10:21:49;23.90;;;21.60;;
57846;SDS011;43675;50.030;21.952;2023-05-19T10:24:16;24.30;;;22.20;;
57846;SDS011;43675;50.030;21.952;2023-05-19T10:26:48;24.60;;;22.30;;
57846;SDS011;43675;50.030;21.952;2023-05-19T10:29:25;24.00;;;21.70;;
57846;SDS011;43675;50.030;21.952;2023-05-19T10:31:54;23.60;;;21.40;;
57846;SDS011;43675;50.030;21.952;2023-05-19T10:39:54;24.40;;;22.30;;
57846;SDS011;43675;50.030;21.952;2023-05-19T10:42:35;25.00;;;22.50;;
57846;SDS011;43675;50.030;21.952;2023-05-19T10:47:43;24.00;;;21.80;;
57846;SDS011;43675;50.030;21.952;2023-05-19T10:50:10;24.00;;;21.80;;
57846;SDS011;43675;50.030;21.952;2023-05-19T10:52:37;24.00;;;21.80;;
57846;SDS011;43675;50.030;21.952;2023-05-19T10:55:13;24.90;;;22.60;;
57846;SDS011;43675;50.030;21.952;2023-05-19T10:57:51;23.80;;;21.70;;
57846;SDS011;43675;50.030;21.952;2023-05-19T11:00:28;24.30;;;22.10;;
57846;SDS011;43675;50.030;21.952;2023-05-19T11:03:15;25.40;;;22.90;;
57846;SDS011;43675;50.030;21.952;2023-05-19T11:05:42;25.30;;;22.70;;
57846;SDS011;43675;50.030;21.952;2023-05-19T11:08:10;24.20;;;21.80;;
57846;SDS011;43675;50.030;21.952;2023-05-19T11:10:37;24.40;;;22.10;;
57846;SDS011;43675;50.030;21.952;2023-05-19T11:13:04;24.00;;;21.90;;
57846;SDS011;43675;50.030;21.952;2023-05-19T11:15:33;23.30;;;21.20;;
57846;SDS011;43675;50.030;21.952;2023-05-19T11:18:01;23.20;;;21.20;;
57846;SDS011;43675;50.030;21.952;2023-05-19T11:20:29;23.50;;;21.00;;
57846;SDS011;43675;50.030;21.952;2023-05-19T11:25:45;23.00;;;20.80;;
57846;SDS011;43675;50.030;21.952;2023-05-19T11:28:17;23.40;;;21.30;;
57846;SDS011;43675;50.030;21.952;2023-05-19T11:30:45;23.20;;;21.10;;
57846;SDS011;43675;50.030;21.952;2023-05-19T11:33:13;22.90;;;20.70;;
57846;SDS011;43675;50.030;21.952;2023-05-19T11:35:40;22.40;;;20.40;;
57846;SDS011;43675;50.030;21.952;2023-05-19T11:38:07;22.00;;;20.20;;
57846;SDS011;43675;50.030;21.952;2023-05-19T11:40:34;22.30;;;20.40;;
57846;SDS011;43675;50.030;21.952;2023-05-19T11:43:01;23.00;;;21.00;;
57846;SDS011;43675;50.030;21.952;2023-05-19T11:45:28;23.60;;;21.40;;
57846;SDS011;43675;50.030;21.952;2023-05-19T11:47:57;23.40;;;21.00;;
57846;SDS011;43675;50.030;21.952;2023-05-19T11:50:24;23.90;;;21.70;;
57846;SDS011;43675;50.030;21.952;2023-05-19T11:52:51;24.40;;;22.20;;
57846;SDS011;43675;50.030;21.952;2023-05-19T11:55:20;24.80;;;22.40;;
57846;SDS011;43675;50.030;21.952;2023-05-19T12:00:21;25.80;;;23.30;;
57846;SDS011;43675;50.030;21.952;2023-05-19T12:02:48;25.40;;;23.10;;
57846;SDS011;43675;50.030;21.952;2023-05-19T12:05:18;25.60;;;23.20;;
57846;SDS011;43675;50.030;21.952;2023-05-19T12:07:46;25.50;;;22.90;;
57846;SDS011;43675;50.030;21.952;2023-05-19T12:10:13;24.70;;;22.50;;
57846;SDS011;43675;50.030;21.952;2023-05-19T12:12:40;25.70;;;23.00;;
57846;SDS011;43675;50.030;21.952;2023-05-19T12:15:07;25.40;;;22.90;;
57846;SDS011;43675;50.030;21.952;2023-05-19T12:17:35;26.30;;;23.70;;
57846;SDS011;43675;50.030;21.952;2023-05-19T12:20:02;26.50;;;24.10;;
57846;SDS011;43675;50.030;21.952;2023-05-19T12:22:29;25.30;;;23.00;;
57846;SDS011;43675;50.030;21.952;2023-05-19T12:24:55;24.30;;;22.00;;
57846;SDS011;43675;50.030;21.952;2023-05-19T12:27:23;25.40;;;22.70;;
57846;SDS011;43675;50.030;21.952;2023-05-19T12:29:51;24.90;;;22.40;;
57846;SDS011;43675;50.030;21.952;2023-05-19T12:32:26;24.80;;;22.60;;
57846;SDS011;43675;50.030;21.952;2023-05-19T12:34:56;24.60;;;22.40;;
57846;SDS011;43675;50.030;21.952;2023-05-19T12:37:26;25.30;;;22.40;;
57846;SDS011;43675;50.030;21.952;2023-05-19T12:39:53;24.00;;;21.80;;
57846;SDS011;43675;50.030;21.952;2023-05-19T12:42:21;23.50;;;21.60;;
57846;SDS011;43675;50.030;21.952;2023-05-19T12:44:49;23.70;;;21.60;;
57846;SDS011;43675;50.030;21.952;2023-05-19T12:47:19;24.50;;;22.20;;
57846;SDS011;43675;50.030;21.952;2023-05-19T12:49:55;24.10;;;22.10;;
57846;SDS011;43675;50.030;21.952;2023-05-19T12:55:12;23.90;;;21.70;;
57846;SDS011;43675;50.030;21.952;2023-05-19T12:57:40;25.00;;;22.70;;
57846;SDS011;43675;50.030;21.952;2023-05-19T13:00:15;24.80;;;22.70;;
57846;SDS011;43675;50.030;21.952;2023-05-19T13:02:56;25.00;;;22.60;;
57846;SDS011;43675;50.030;21.952;2023-05-19T13:05:30;25.80;;;23.20;;
57846;SDS011;43675;50.030;21.952;2023-05-19T13:08:06;26.20;;;23.70;;
57846;SDS011;43675;50.030;21.952;2023-05-19T13:10:35;27.60;;;25.10;;
57846;SDS011;43675;50.030;21.952;2023-05-19T13:13:03;25.50;;;23.10;;
57846;SDS011;43675;50.030;21.952;2023-05-19T13:15:31;25.90;;;23.50;;
57846;SDS011;43675;50.030;21.952;2023-05-19T13:17:59;26.20;;;23.70;;
57846;SDS011;43675;50.030;21.952;2023-05-19T13:20:27;26.40;;;24.00;;
57846;SDS011;43675;50.030;21.952;2023-05-19T13:22:55;25.70;;;23.40;;
57846;SDS011;43675;50.030;21.952;2023-05-19T13:25:21;26.50;;;24.00;;
57846;SDS011;43675;50.030;21.952;2023-05-19T13:27:48;26.40;;;23.70;;
57846;SDS011;43675;50.030;21.952;2023-05-19T13:30:14;26.80;;;24.20;;
57846;SDS011;43675;50.030;21.952;2023-05-19T13:32:41;25.40;;;22.90;;
57846;SDS011;43675;50.030;21.952;2023-05-19T13:35:09;26.40;;;24.10;;
57846;SDS011;43675;50.030;21.952;2023-05-19T13:37:38;26.50;;;24.10;;
57846;SDS011;43675;50.030;21.952;2023-05-19T13:40:06;26.70;;;24.40;;
57846;SDS011;43675;50.030;21.952;2023-05-19T13:42:34;25.90;;;23.50;;
57846;SDS011;43675;50.030;21.952;2023-05-19T13:45:01;24.80;;;22.60;;
57846;SDS011;43675;50.030;21.952;2023-05-19T13:47:28;25.20;;;23.00;;
57846;SDS011;43675;50.030;21.952;2023-05-19T13:49:55;25.50;;;23.30;;
57846;SDS011;43675;50.030;21.952;2023-05-19T13:52:21;27.40;;;24.90;;
57846;SDS011;43675;50.030;21.952;2023-05-19T13:54:48;27.00;;;24.50;;
57846;SDS011;43675;50.030;21.952;2023-05-19T13:57:15;25.90;;;23.60;;
57846;SDS011;43675;50.030;21.952;2023-05-19T13:59:42;25.50;;;23.20;;
57846;SDS011;43675;50.030;21.952;2023-05-19T14:02:09;24.50;;;22.00;;
57846;SDS011;43675;50.030;21.952;2023-05-19T14:04:36;25.30;;;23.00;;
57846;SDS011;43675;50.030;21.952;2023-05-19T14:07:05;26.70;;;24.10;;
57846;SDS011;43675;50.030;21.952;2023-05-19T14:09:32;26.10;;;23.80;;
57846;SDS011;43675;50.030;21.952;2023-05-19T14:11:59;26.70;;;24.30;;
57846;SDS011;43675;50.030;21.952;2023-05-19T14:14:26;26.20;;;23.90;;
57846;SDS011;43675;50.030;21.952;2023-05-19T14:16:52;26.30;;;23.70;;
57846;SDS011;43675;50.030;21.952;2023-05-19T14:19:19;26.60;;;24.30;;
57846;SDS011;43675;50.030;21.952;2023-05-19T14:21:46;26.30;;;23.80;;
57846;SDS011;43675;50.030;21.952;2023-05-19T14:24:12;27.30;;;24.60;;
57846;SDS011;43675;50.030;21.952;2023-05-19T14:26:38;26.00;;;23.70;;
57846;SDS011;43675;50.030;21.952;2023-05-19T14:29:05;26.10;;;23.80;;
57846;SDS011;43675;50.030;21.952;2023-05-19T14:31:32;26.50;;;23.90;;
57846;SDS011;43675;50.030;21.952;2023-05-19T14:33:58;26.00;;;23.70;;
57846;SDS011;43675;50.030;21.952;2023-05-19T14:36:25;26.90;;;24.30;;
57846;SDS011;43675;50.030;21.952;2023-05-19T14:38:51;26.00;;;23.60;;
57846;SDS011;43675;50.030;21.952;2023-05-19T14:41:18;24.90;;;22.70;;
57846;SDS011;43675;50.030;21.952;2023-05-19T14:43:44;26.00;;;23.50;;
57846;SDS011;43675;50.030;21.952;2023-05-19T14:46:11;24.20;;;22.10;;
57846;SDS011;43675;50.030;21.952;2023-05-19T14:48:37;26.00;;;23.60;;
57846;SDS011;43675;50.030;21.952;2023-05-19T14:51:04;26.90;;;24.10;;